Time;durP1;ratioP1;P1;durP2;ratioP2;P2;SDS_P1;SDS_P2;PMS_P1;PMS_P2;Temp;Humidity;BMP_temperature;BMP_pressure;BME280_temperature;BME280_humidity;BME280_pressure;Samples;Min_cycle;Max_cycle;Signal;HPM_P1;HPM_P2
2021/12/14 00:03:23;;;;;;;8.80;6.65;;;;;;;;;;8282550;28;19975;-65
2021/12/14 00:07:23;;;;;;;9.07;6.80;;;;;;;;;;8288128;28;20556;-65
2021/12/14 00:15:41;;;;;;;10.80;8.77;;;;;;;;;;8284765;28;20257;-63
2021/12/14 00:19:41;;;;;;;11.75;9.02;;;;;;;;;;8289596;28;20036;-63
2021/12/14 00:28:03;;;;;;;9.73;8.07;;;;;;;;;;8289025;28;20111;-63
2021/12/14 00:32:17;;;;;;;10.57;7.63;;;;;;;;;;8287530;28;20037;-63
2021/12/14 00:36:19;;;;;;;9.43;7.38;;;;;;;;;;8288991;28;20083;-63
2021/12/14 00:40:23;;;;;;;14.70;8.75;;;;;;;;;;8287691;28;20018;-63
2021/12/14 00:44:23;;;;;;;9.23;7.60;;;;;;;;;;8288401;28;20053;-63
2021/12/14 00:48:23;;;;;;;8.32;6.82;;;;;;;;;;8286447;28;20033;-63
2021/12/14 00:52:23;;;;;;;9.48;7.07;;;;;;;;;;8289563;28;20021;-65
2021/12/14 00:56:24;;;;;;;7.20;5.93;;;;;;;;;;8289197;28;20030;-65
2021/12/14 01:00:28;;;;;;;6.95;4.93;;;;;;;;;;8288712;28;20371;-65
2021/12/14 01:04:35;;;;;;;5.90;4.80;;;;;;;;;;8284899;28;20033;-65
2021/12/14 01:08:39;;;;;;;5.03;4.53;;;;;;;;;;8288960;28;20032;-65
2021/12/14 01:12:49;;;;;;;;;;;;;;;;;;8286828;28;20101;-65
2021/12/14 01:17:08;;;;;;;4.03;3.53;;;;;;;;;;8288429;28;20027;-65
2021/12/14 01:22:10;;;;;;;6.25;4.07;;;;;;;;;;8289090;28;20029;-65
2021/12/14 01:25:42;;;;;;;4.28;3.88;;;;;;;;;;8284140;28;20502;-65
2021/12/14 01:29:43;;;;;;;3.97;3.58;;;;;;;;;;8288266;28;20017;-65
2021/12/14 01:33:49;;;;;;;4.72;3.90;;;;;;;;;;8285075;28;20509;-65
2021/12/14 01:38:00;;;;;;;5.75;3.78;;;;;;;;;;8284183;28;20026;-65
2021/12/14 01:42:06;;;;;;;5.35;4.85;;;;;;;;;;8286682;28;20144;-65
2021/12/14 01:46:15;;;;;;;4.65;4.25;;;;;;;;;;8285677;28;20635;-65
2021/12/14 01:50:17;;;;;;;4.20;3.80;;;;;;;;;;8284923;28;20037;-65
2021/12/14 01:54:21;;;;;;;4.25;3.75;;;;;;;;;;8285685;28;20032;-65
2021/12/14 01:58:24;;;;;;;4.70;4.28;;;;;;;;;;8284969;28;20277;-65
2021/12/14 02:02:30;;;;;;;5.18;4.60;;;;;;;;;;8283759;28;20502;-64
2021/12/14 02:06:33;;;;;;;5.53;4.68;;;;;;;;;;8289335;28;20469;-65
2021/12/14 02:10:35;;;;;;;5.97;4.72;;;;;;;;;;8284990;28;20048;-65
2021/12/14 02:14:36;;;;;;;5.20;4.70;;;;;;;;;;8285081;28;20095;-65
2021/12/14 02:18:36;;;;;;;6.75;5.20;;;;;;;;;;8283877;28;20033;-65
2021/12/14 02:22:36;;;;;;;5.35;4.88;;;;;;;;;;8284826;28;20026;-66
2021/12/14 02:26:38;;;;;;;13.82;9.18;;;;;;;;;;8285817;28;20027;-65
2021/12/14 02:30:40;;;;;;;9.40;7.18;;;;;;;;;;8284373;28;20073;-65
2021/12/14 02:34:45;;;;;;;7.50;5.78;;;;;;;;;;8285022;28;20513;-65
2021/12/14 02:38:48;;;;;;;6.07;5.47;;;;;;;;;;8273571;28;20116;-65
2021/12/14 02:42:50;;;;;;;7.82;5.65;;;;;;;;;;8283168;28;20062;-65
2021/12/14 02:46:55;;;;;;;5.72;4.88;;;;;;;;;;8285556;28;20071;-65
2021/12/14 02:50:55;;;;;;;6.45;5.22;;;;;;;;;;8286739;28;20033;-65
2021/12/14 02:54:58;;;;;;;4.97;4.47;;;;;;;;;;8284587;28;20044;-65
2021/12/14 02:59:01;;;;;;;4.75;4.25;;;;;;;;;;8283139;28;20029;-65
2021/12/14 03:03:02;;;;;;;5.10;4.15;;;;;;;;;;8282258;28;20216;-65
2021/12/14 03:07:03;;;;;;;3.53;3.22;;;;;;;;;;8285523;28;20066;-65
2021/12/14 03:11:11;;;;;;;4.03;3.35;;;;;;;;;;8283258;28;20118;-65
2021/12/14 03:15:20;;;;;;;3.65;2.83;;;;;;;;;;8281797;28;20390;-65
2021/12/14 03:19:20;;;;;;;3.53;3.22;;;;;;;;;;8284156;28;20096;-65
2021/12/14 03:23:23;;;;;;;3.40;3.10;;;;;;;;;;8285941;28;20026;-65
2021/12/14 03:27:23;;;;;;;3.05;2.80;;;;;;;;;;8283878;28;20279;-65
2021/12/14 03:31:26;;;;;;;3.78;3.47;;;;;;;;;;8285727;28;20037;-65
2021/12/14 03:35:35;;;;;;;4.40;4.00;;;;;;;;;;8282419;28;20588;-65
2021/12/14 03:39:46;;;;;;;5.13;4.50;;;;;;;;;;8285643;28;20663;-65
2021/12/14 03:43:58;;;;;;;4.45;4.05;;;;;;;;;;8280568;28;20025;-65
2021/12/14 03:47:59;;;;;;;5.10;4.60;;;;;;;;;;8283657;28;20466;-65
2021/12/14 03:52:01;;;;;;;4.50;4.07;;;;;;;;;;8289080;28;20041;-65
2021/12/14 03:56:03;;;;;;;4.30;3.90;;;;;;;;;;8288168;28;20113;-65
2021/12/14 04:00:05;;;;;;;4.50;4.10;;;;;;;;;;8290627;28;20033;-65
2021/12/14 04:04:11;;;;;;;4.80;4.30;;;;;;;;;;8289991;28;20064;-65
2021/12/14 04:08:13;;;;;;;5.28;4.43;;;;;;;;;;8292673;28;20274;-65
2021/12/14 04:12:14;;;;;;;5.25;4.28;;;;;;;;;;8288528;28;20025;-65
2021/12/14 04:16:17;;;;;;;4.95;4.45;;;;;;;;;;8288497;28;20033;-65
2021/12/14 04:20:23;;;;;;;5.20;4.47;;;;;;;;;;8289664;28;20030;-65
2021/12/14 04:24:24;;;;;;;6.35;5.20;;;;;;;;;;8291533;28;20100;-65
2021/12/14 04:28:29;;;;;;;6.45;5.25;;;;;;;;;;8288308;28;20036;-65
2021/12/14 04:32:29;;;;;;;4.80;4.30;;;;;;;;;;8285121;28;20457;-65
2021/12/14 04:36:30;;;;;;;5.25;4.50;;;;;;;;;;8290179;28;20337;-65
2021/12/14 04:53:10;;;;;;;5.72;5.13;;;;;;;;;;8289015;28;20299;-65
2021/12/14 04:57:22;;;;;;;7.07;6.38;;;;;;;;;;8289500;28;20112;-65
2021/12/14 05:01:22;;;;;;;7.03;6.07;;;;;;;;;;8287221;28;20062;-65
2021/12/14 05:05:28;;;;;;;8.82;7.22;;;;;;;;;;8286668;28;20032;-65
2021/12/14 05:09:30;;;;;;;11.25;8.55;;;;;;;;;;8287658;28;20033;-63
2021/12/14 05:13:33;;;;;;;11.70;9.63;;;;;;;;;;8288714;28;20032;-63
2021/12/14 05:17:34;;;;;;;13.98;10.25;;;;;;;;;;8287630;28;20044;-63
2021/12/14 05:21:36;;;;;;;14.00;10.93;;;;;;;;;;8288524;28;20394;-63
2021/12/14 05:25:38;;;;;;;16.08;12.75;;;;;;;;;;8286763;28;20144;-63
2021/12/14 05:29:41;;;;;;;12.82;11.40;;;;;;;;;;8290009;28;20072;-63
2021/12/14 05:33:42;;;;;;;13.77;11.52;;;;;;;;;;8287967;28;20116;-63
2021/12/14 05:37:49;;;;;;;14.48;11.10;;;;;;;;;;8284932;28;20548;-63
2021/12/14 05:46:06;;;;;;;13.35;11.10;;;;;;;;;;8282868;28;20088;-63
2021/12/14 05:50:07;;;;;;;12.00;10.15;;;;;;;;;;8287072;28;20026;-63
2021/12/14 05:54:07;;;;;;;15.75;11.10;;;;;;;;;;8286124;28;20018;-63
2021/12/14 05:58:14;;;;;;;19.02;9.93;;;;;;;;;;8286228;28;20025;-65
2021/12/14 06:02:15;;;;;;;11.32;9.43;;;;;;;;;;8284719;28;20044;-63
2021/12/14 06:06:17;;;;;;;12.13;9.50;;;;;;;;;;8284608;28;20032;-63
2021/12/14 06:10:21;;;;;;;13.73;10.02;;;;;;;;;;8285105;28;20200;-63
2021/12/14 06:14:22;;;;;;;12.07;10.07;;;;;;;;;;8288924;28;20036;-63
2021/12/14 06:18:23;;;;;;;13.55;8.68;;;;;;;;;;8281951;28;20029;-63
2021/12/14 06:22:24;;;;;;;10.43;8.98;;;;;;;;;;8285069;28;20029;-63
2021/12/14 06:26:31;;;;;;;11.73;10.43;;;;;;;;;;8287841;28;20074;-63
2021/12/14 06:30:35;;;;;;;11.73;9.95;;;;;;;;;;8284110;28;20056;-63
2021/12/14 06:34:38;;;;;;;12.27;10.70;;;;;;;;;;8286423;28;20490;-63
2021/12/14 06:38:38;;;;;;;11.50;10.00;;;;;;;;;;8285341;28;20044;-63
2021/12/14 06:42:40;;;;;;;13.25;10.98;;;;;;;;;;8287062;28;20554;-63
2021/12/14 06:46:41;;;;;;;14.05;10.93;;;;;;;;;;8289699;28;20603;-63
2021/12/14 06:50:46;;;;;;;14.90;11.07;;;;;;;;;;8282946;28;20021;-63
2021/12/14 06:54:47;;;;;;;14.15;10.20;;;;;;;;;;8281645;28;20334;-63
2021/12/14 06:58:49;;;;;;;12.65;10.10;;;;;;;;;;8284300;28;20029;-63
2021/12/14 07:02:50;;;;;;;12.82;10.02;;;;;;;;;;8285198;28;20088;-62
2021/12/14 07:06:56;;;;;;;11.35;9.77;;;;;;;;;;8283709;28;20469;-62
2021/12/14 07:10:56;;;;;;;10.57;9.48;;;;;;;;;;8282203;28;20488;-62
2021/12/14 07:14:58;;;;;;;11.15;8.98;;;;;;;;;;8282306;28;20570;-63
2021/12/14 07:19:00;;;;;;;14.70;10.20;;;;;;;;;;8283565;28;20049;-63
2021/12/14 07:23:04;;;;;;;11.30;9.27;;;;;;;;;;8285612;28;20030;-63
2021/12/14 07:27:21;;;;;;;13.95;10.13;;;;;;;;;;8283224;28;20425;-63
2021/12/14 07:31:23;;;;;;;14.38;9.90;;;;;;;;;;8276641;28;20069;-63
2021/12/14 07:35:29;;;;;;;12.35;10.20;;;;;;;;;;8278904;28;20047;-63
2021/12/14 07:39:29;;;;;;;11.63;8.43;;;;;;;;;;8283889;28;20141;-63
2021/12/14 07:43:32;;;;;;;10.90;8.45;;;;;;;;;;8285196;28;20053;-63
2021/12/14 07:47:33;;;;;;;9.37;8.37;;;;;;;;;;8279855;28;20502;-63
2021/12/14 07:51:35;;;;;;;13.32;10.00;;;;;;;;;;8286562;28;20504;-63
2021/12/14 07:55:39;;;;;;;11.32;8.95;;;;;;;;;;8282116;28;20026;-63
2021/12/14 07:59:51;;;;;;;11.98;9.32;;;;;;;;;;8284345;28;20033;-63
2021/12/14 08:03:59;;;;;;;12.45;9.27;;;;;;;;;;8281743;28;20523;-62
2021/12/14 08:08:09;;;;;;;14.10;9.73;;;;;;;;;;8282722;28;20029;-62
2021/12/14 08:12:09;;;;;;;13.77;9.88;;;;;;;;;;8285499;28;20219;-63
2021/12/14 08:16:10;;;;;;;13.48;9.85;;;;;;;;;;8281218;28;20427;-63
2021/12/14 08:20:12;;;;;;;13.80;10.07;;;;;;;;;;8281189;28;20036;-63
2021/12/14 08:24:15;;;;;;;17.13;10.27;;;;;;;;;;8282014;28;20772;-63
2021/12/14 08:28:18;;;;;;;16.10;10.93;;;;;;;;;;8286388;28;20069;-63
2021/12/14 08:32:21;;;;;;;14.23;10.48;;;;;;;;;;8280878;28;20041;-63
2021/12/14 08:36:22;;;;;;;16.27;10.35;;;;;;;;;;8287388;28;20597;-63
2021/12/14 08:40:24;;;;;;;16.23;10.55;;;;;;;;;;8291972;28;20076;-63
2021/12/14 08:44:35;;;;;;;14.43;9.88;;;;;;;;;;8302167;28;20026;-63
2021/12/14 08:48:43;;;;;;;16.33;10.25;;;;;;;;;;8286213;28;20085;-63
2021/12/14 08:52:43;;;;;;;14.68;10.18;;;;;;;;;;8287864;28;20037;-63
2021/12/14 08:56:52;;;;;;;14.63;9.57;;;;;;;;;;8284470;28;20030;-63
2021/12/14 09:00:55;;;;;;;16.13;10.05;;;;;;;;;;8300581;28;20037;-63
2021/12/14 09:05:01;;;;;;;17.02;10.07;;;;;;;;;;8287130;28;20420;-63
2021/12/14 09:09:03;;;;;;;18.65;11.63;;;;;;;;;;8264553;28;20593;-63
2021/12/14 09:13:05;;;;;;;23.13;11.95;;;;;;;;;;8289188;28;20435;-63
2021/12/14 09:17:06;;;;;;;17.73;11.20;;;;;;;;;;8285939;28;20123;-63
2021/12/14 09:21:09;;;;;;;24.75;12.15;;;;;;;;;;8291479;28;20350;-63
2021/12/14 09:25:18;;;;;;;21.38;12.00;;;;;;;;;;8287116;28;20603;-63
2021/12/14 09:29:20;;;;;;;23.80;11.40;;;;;;;;;;8284716;28;20025;-63
2021/12/14 09:33:21;;;;;;;16.42;10.32;;;;;;;;;;8288352;28;20045;-63
2021/12/14 09:37:21;;;;;;;13.50;9.40;;;;;;;;;;8284880;28;20033;-63
2021/12/14 09:41:23;;;;;;;15.57;10.00;;;;;;;;;;8288468;28;20094;-63
2021/12/14 09:45:25;;;;;;;14.88;8.98;;;;;;;;;;8284125;28;20049;-63
2021/12/14 09:49:26;;;;;;;16.77;9.48;;;;;;;;;;8283671;28;20588;-63
2021/12/14 09:53:27;;;;;;;18.17;10.33;;;;;;;;;;8285062;28;20029;-63
2021/12/14 09:57:32;;;;;;;17.90;9.50;;;;;;;;;;8274675;28;20282;-63
2021/12/14 10:01:38;;;;;;;15.05;10.10;;;;;;;;;;8285605;28;20116;-63
2021/12/14 10:05:40;;;;;;;17.92;10.10;;;;;;;;;;8285695;28;20124;-63
2021/12/14 10:09:44;;;;;;;16.15;9.35;;;;;;;;;;8283178;28;20033;-63
2021/12/14 10:13:45;;;;;;;16.10;9.95;;;;;;;;;;8286470;28;20013;-63
2021/12/14 10:17:46;;;;;;;16.58;9.50;;;;;;;;;;8281670;28;20711;-63
2021/12/14 10:22:23;;;;;;;13.25;8.93;;;;;;;;;;8284270;28;20081;-63
2021/12/14 10:26:24;;;;;;;12.15;8.13;;;;;;;;;;8219616;28;20043;-63
2021/12/14 10:30:33;;;;;;;14.05;8.80;;;;;;;;;;8285349;28;20569;-63
2021/12/14 10:34:40;;;;;;;13.15;8.63;;;;;;;;;;8284557;28;20113;-63
2021/12/14 10:39:02;;;;;;;14.38;9.02;;;;;;;;;;8285738;28;20032;-63
2021/12/14 10:43:13;;;;;;;12.45;8.70;;;;;;;;;;8286157;28;20563;-63
2021/12/14 10:47:14;;;;;;;13.55;9.27;;;;;;;;;;8284669;28;20046;-63
2021/12/14 10:51:16;;;;;;;14.98;9.57;;;;;;;;;;8283574;28;20033;-63
2021/12/14 10:55:19;;;;;;;14.27;9.13;;;;;;;;;;8287493;28;20022;-63
2021/12/14 10:59:22;;;;;;;16.40;9.97;;;;;;;;;;8284074;28;20439;-63
2021/12/14 11:03:24;;;;;;;14.48;8.88;;;;;;;;;;8279667;28;20287;-63
2021/12/14 11:07:29;;;;;;;12.60;8.45;;;;;;;;;;8284410;28;20048;-63
2021/12/14 11:11:34;;;;;;;17.52;9.63;;;;;;;;;;8285860;28;20031;-63
2021/12/14 11:15:37;;;;;;;16.58;9.75;;;;;;;;;;8279697;28;20955;-63
2021/12/14 11:19:38;;;;;;;14.82;9.77;;;;;;;;;;8288469;28;20565;-63
2021/12/14 11:23:41;;;;;;;15.00;9.35;;;;;;;;;;8286888;28;20057;-63
2021/12/14 11:27:43;;;;;;;13.50;9.55;;;;;;;;;;8285378;28;20099;-63
2021/12/14 11:31:48;;;;;;;12.63;8.93;;;;;;;;;;8285441;28;20049;-63
2021/12/14 11:35:50;;;;;;;13.98;9.13;;;;;;;;;;8271569;28;20032;-63
2021/12/14 11:39:52;;;;;;;15.88;10.80;;;;;;;;;;8284267;28;20554;-63
2021/12/14 11:43:56;;;;;;;18.38;11.73;;;;;;;;;;8289159;28;20068;-63
2021/12/14 11:47:59;;;;;;;16.10;10.63;;;;;;;;;;8282180;28;20052;-63
2021/12/14 11:51:59;;;;;;;13.27;8.70;;;;;;;;;;8284395;28;20033;-64
2021/12/14 11:56:02;;;;;;;12.30;8.33;;;;;;;;;;8282472;28;20132;-63
2021/12/14 12:00:08;;;;;;;14.48;8.60;;;;;;;;;;8278480;28;20294;-63
2021/12/14 12:04:34;;;;;;;13.05;8.10;;;;;;;;;;8282739;28;20562;-63
2021/12/14 12:12:56;;;;;;;11.98;8.30;;;;;;;;;;8288147;28;20126;-63
2021/12/14 12:17:17;;;;;;;11.82;8.85;;;;;;;;;;8288296;28;20037;-63
2021/12/14 12:21:25;;;;;;;10.40;7.32;;;;;;;;;;8289431;28;20042;-63
2021/12/14 12:25:31;;;;;;;10.52;7.30;;;;;;;;;;8294798;28;20036;-63
2021/12/14 12:29:31;;;;;;;11.52;8.15;;;;;;;;;;8296452;28;20030;-63
2021/12/14 12:33:36;;;;;;;12.32;7.47;;;;;;;;;;8289825;28;20143;-63
2021/12/14 12:37:40;;;;;;;9.82;6.68;;;;;;;;;;8295922;28;20049;-63
2021/12/14 12:41:44;;;;;;;;;;;;;;;;;;8298048;28;20029;-63
2021/12/14 12:45:52;;;;;;;10.80;7.20;;;;;;;;;;8294816;28;20047;-63
2021/12/14 12:49:56;;;;;;;9.70;6.38;;;;;;;;;;8293292;28;20030;-63
2021/12/14 12:54:15;;;;;;;8.60;6.50;;;;;;;;;;8293484;28;20545;-63
2021/12/14 12:58:17;;;;;;;11.20;7.38;;;;;;;;;;8292581;28;20027;-63
2021/12/14 13:02:17;;;;;;;12.77;6.75;;;;;;;;;;8293739;28;20495;-63
2021/12/14 13:06:22;;;;;;;9.02;6.47;;;;;;;;;;8294441;28;20838;-63
2021/12/14 13:10:29;;;;;;;8.07;6.13;;;;;;;;;;8295249;28;20029;-63
2021/12/14 13:14:34;;;;;;;8.27;5.85;;;;;;;;;;8295543;28;20025;-63
2021/12/14 13:18:43;;;;;;;8.85;5.90;;;;;;;;;;8292221;28;20045;-63
2021/12/14 13:22:47;;;;;;;8.45;6.15;;;;;;;;;;8295422;28;20030;-63
2021/12/14 13:27:06;;;;;;;8.27;6.00;;;;;;;;;;8294977;28;20042;-63
2021/12/14 14:23:23;;;;;;;10.02;5.57;;;;;;;;;;8280673;28;20158;-63
2021/12/14 14:27:52;;;;;;;8.13;4.50;;;;;;;;;;8274614;28;20056;-63
2021/12/14 14:50:35;;;;;;;6.72;4.68;;;;;;;;;;8281545;28;20102;-63
2021/12/14 14:54:36;;;;;;;8.73;5.15;;;;;;;;;;8281004;28;20487;-63
2021/12/14 14:58:37;;;;;;;7.93;5.10;;;;;;;;;;8283304;28;20458;-63
2021/12/14 15:02:50;;;;;;;7.93;5.40;;;;;;;;;;8281026;28;20057;-63
2021/12/14 15:06:50;;;;;;;6.75;4.50;;;;;;;;;;8281730;28;20494;-63
2021/12/14 15:10:53;;;;;;;7.97;5.43;;;;;;;;;;8282735;28;20675;-62
2021/12/14 15:15:09;;;;;;;11.50;5.55;;;;;;;;;;8281796;28;20538;-63
2021/12/14 15:19:12;;;;;;;7.22;4.90;;;;;;;;;;8281153;28;20565;-63
2021/12/14 15:23:14;;;;;;;6.97;5.30;;;;;;;;;;8276533;28;20020;-62
2021/12/14 15:27:15;;;;;;;7.63;5.28;;;;;;;;;;8279180;28;20065;-62
2021/12/14 15:31:16;;;;;;;6.50;4.93;;;;;;;;;;8284008;28;20034;-62
2021/12/14 15:35:18;;;;;;;9.73;5.60;;;;;;;;;;8288422;28;20521;-62
2021/12/14 15:39:18;;;;;;;8.45;5.85;;;;;;;;;;8289177;28;20474;-62
2021/12/14 15:43:20;;;;;;;9.13;5.72;;;;;;;;;;8286899;28;20017;-62
2021/12/14 15:47:20;;;;;;;9.30;5.57;;;;;;;;;;8285147;28;20141;-63
2021/12/14 15:51:21;;;;;;;9.63;5.77;;;;;;;;;;8288267;28;20063;-63
2021/12/14 15:55:29;;;;;;;7.47;5.70;;;;;;;;;;8288230;28;20272;-62
2021/12/14 15:59:31;;;;;;;11.35;7.63;;;;;;;;;;8283958;28;20629;-63
2021/12/14 16:03:32;;;;;;;10.57;7.25;;;;;;;;;;8282772;28;20065;-63
2021/12/14 16:07:33;;;;;;;10.68;6.57;;;;;;;;;;8284077;28;20038;-63
2021/12/14 16:11:45;;;;;;;10.05;6.80;;;;;;;;;;8287420;28;20060;-63
2021/12/14 16:15:47;;;;;;;13.50;6.47;;;;;;;;;;8286284;28;20038;-63
2021/12/14 16:19:49;;;;;;;10.57;6.38;;;;;;;;;;8286463;28;20033;-63
2021/12/14 16:23:55;;;;;;;9.77;6.70;;;;;;;;;;8288091;28;20425;-63
2021/12/14 16:27:58;;;;;;;10.48;6.32;;;;;;;;;;8282885;28;21021;-63
2021/12/14 16:31:58;;;;;;;9.15;6.68;;;;;;;;;;8287366;28;20037;-63
2021/12/14 16:36:01;;;;;;;11.85;6.93;;;;;;;;;;8287437;28;20132;-63
2021/12/14 16:40:04;;;;;;;10.50;7.00;;;;;;;;;;8285281;28;20025;-63
2021/12/14 16:44:08;;;;;;;9.13;6.72;;;;;;;;;;8284683;28;20030;-63
2021/12/14 16:48:08;;;;;;;10.45;6.97;;;;;;;;;;8288182;28;20067;-63
2021/12/14 16:52:13;;;;;;;9.05;6.18;;;;;;;;;;8283719;28;20030;-63
2021/12/14 16:56:17;;;;;;;11.90;7.53;;;;;;;;;;8288246;28;20037;-63
2021/12/14 17:00:19;;;;;;;12.73;8.10;;;;;;;;;;8296724;28;20045;-63
2021/12/14 17:04:23;;;;;;;12.15;6.57;;;;;;;;;;8291809;28;20026;-63
2021/12/14 17:08:25;;;;;;;11.13;7.75;;;;;;;;;;8294890;28;20612;-63
2021/12/14 17:12:25;;;;;;;11.77;7.93;;;;;;;;;;8292356;28;20394;-63
2021/12/14 17:16:30;;;;;;;8.65;6.80;;;;;;;;;;8290547;28;20033;-63
2021/12/14 17:20:30;;;;;;;;;;;;;;;;;;8295472;28;20032;-63
2021/12/14 17:24:32;;;;;;;10.45;6.82;;;;;;;;;;8292985;28;19916;-63
2021/12/14 17:28:38;;;;;;;9.00;6.82;;;;;;;;;;8287821;28;20026;-63
2021/12/14 17:32:38;;;;;;;10.25;6.93;;;;;;;;;;8291842;28;20895;-63
2021/12/14 17:36:39;;;;;;;8.05;5.80;;;;;;;;;;8290921;28;20448;-63
2021/12/14 17:40:40;;;;;;;7.68;5.60;;;;;;;;;;8292661;28;20842;-63
2021/12/14 17:44:41;;;;;;;6.10;4.90;;;;;;;;;;8292311;28;20478;-63
2021/12/14 17:48:41;;;;;;;5.20;4.40;;;;;;;;;;8288823;28;20041;-63
2021/12/14 17:52:44;;;;;;;6.87;5.30;;;;;;;;;;8292315;28;20031;-63
2021/12/14 17:56:44;;;;;;;6.38;5.40;;;;;;;;;;8292213;28;20275;-63
2021/12/14 18:00:54;;;;;;;7.57;5.03;;;;;;;;;;8288662;28;20088;-63
2021/12/14 18:04:54;;;;;;;7.32;5.65;;;;;;;;;;8291126;28;20025;-63
2021/12/14 18:09:05;;;;;;;7.25;5.20;;;;;;;;;;8290356;28;20057;-63
2021/12/14 18:13:08;;;;;;;6.28;5.28;;;;;;;;;;8290035;28;20025;-63
2021/12/14 18:17:11;;;;;;;7.45;5.03;;;;;;;;;;8291087;28;20061;-63
2021/12/14 18:21:14;;;;;;;5.80;4.50;;;;;;;;;;8291499;28;20274;-63
2021/12/14 18:25:15;;;;;;;5.50;3.72;;;;;;;;;;8290919;28;20060;-63
2021/12/14 18:29:17;;;;;;;8.63;6.32;;;;;;;;;;8280122;28;20029;-63
2021/12/14 18:33:18;;;;;;;12.85;8.48;;;;;;;;;;8289716;28;20080;-63
2021/12/14 18:37:20;;;;;;;11.63;8.38;;;;;;;;;;8287978;28;20021;-63
2021/12/14 18:41:20;;;;;;;11.90;8.30;;;;;;;;;;8289647;28;20034;-63
2021/12/14 18:45:22;;;;;;;9.45;7.20;;;;;;;;;;8288736;28;20426;-63
2021/12/14 18:49:39;;;;;;;9.80;7.72;;;;;;;;;;8290813;28;20570;-63
2021/12/14 18:53:40;;;;;;;11.07;7.97;;;;;;;;;;8289108;28;20128;-63
2021/12/14 18:57:40;;;;;;;10.43;7.07;;;;;;;;;;8292154;28;20769;-63
2021/12/14 19:01:42;;;;;;;9.23;7.15;;;;;;;;;;8290168;28;20577;-63
2021/12/14 19:05:45;;;;;;;8.07;6.88;;;;;;;;;;8280804;28;20548;-63
2021/12/14 19:09:50;;;;;;;10.85;8.05;;;;;;;;;;8283710;28;20047;-63
2021/12/14 19:13:54;;;;;;;12.02;8.05;;;;;;;;;;8283213;28;20561;-63
2021/12/14 19:17:57;;;;;;;8.38;7.03;;;;;;;;;;8283668;28;20580;-63
2021/12/14 19:22:09;;;;;;;10.45;7.90;;;;;;;;;;8271297;28;20061;-63
2021/12/14 19:26:12;;;;;;;10.88;7.45;;;;;;;;;;8281319;28;20033;-63
2021/12/14 19:30:15;;;;;;;10.35;7.93;;;;;;;;;;8282444;28;20029;-63
2021/12/14 19:34:16;;;;;;;9.30;7.07;;;;;;;;;;8284905;28;20169;-62
2021/12/14 19:38:19;;;;;;;9.85;6.95;;;;;;;;;;8283634;28;20029;-63
2021/12/14 19:42:24;;;;;;;11.55;8.85;;;;;;;;;;8281953;28;20169;-62
2021/12/14 19:46:29;;;;;;;11.85;8.50;;;;;;;;;;8281344;28;20037;-63
2021/12/14 19:50:30;;;;;;;8.50;6.80;;;;;;;;;;8281428;28;20096;-63
2021/12/14 19:54:33;;;;;;;6.40;5.68;;;;;;;;;;8282224;28;20107;-63
2021/12/14 19:58:34;;;;;;;8.13;6.72;;;;;;;;;;8279559;28;20062;-63
2021/12/14 20:02:35;;;;;;;11.27;6.10;;;;;;;;;;8281478;28;20339;-62
2021/12/14 20:06:42;;;;;;;6.20;5.30;;;;;;;;;;8284316;28;20087;-63
2021/12/14 20:10:47;;;;;;;7.28;5.03;;;;;;;;;;8283806;28;20540;-63
2021/12/14 20:14:51;;;;;;;6.07;5.18;;;;;;;;;;8280146;28;20021;-63
2021/12/14 20:18:52;;;;;;;5.75;5.07;;;;;;;;;;8277226;28;20048;-63
2021/12/14 20:22:54;;;;;;;5.95;5.28;;;;;;;;;;8281626;28;20037;-63
2021/12/14 20:27:00;;;;;;;6.88;5.75;;;;;;;;;;8281080;28;20061;-63
2021/12/14 20:31:24;;;;;;;13.63;8.13;;;;;;;;;;8280300;28;20045;-63
2021/12/14 20:35:29;;;;;;;10.00;8.13;;;;;;;;;;8284062;28;20041;-63
2021/12/14 20:39:31;;;;;;;11.20;7.93;;;;;;;;;;8287101;28;20282;-63
2021/12/14 20:43:52;;;;;;;11.48;8.50;;;;;;;;;;8286327;28;20051;-63
2021/12/14 20:47:53;;;;;;;8.70;6.88;;;;;;;;;;8284979;28;20046;-63
2021/12/14 20:51:56;;;;;;;7.53;6.47;;;;;;;;;;8284725;28;20034;-63
2021/12/14 20:56:04;;;;;;;7.90;7.03;;;;;;;;;;8285897;28;20025;-63
2021/12/14 21:00:07;;;;;;;17.27;12.75;;;;;;;;;;8286051;28;20493;-63
2021/12/14 21:04:10;;;;;;;11.98;8.27;;;;;;;;;;8282628;28;20017;-63
2021/12/14 21:08:15;;;;;;;6.53;5.50;;;;;;;;;;8287644;28;20446;-63
2021/12/14 21:12:18;;;;;;;7.63;5.28;;;;;;;;;;8286876;28;20029;-63
2021/12/14 21:16:30;;;;;;;6.67;4.60;;;;;;;;;;8286235;28;20045;-63
2021/12/14 21:20:33;;;;;;;8.23;5.35;;;;;;;;;;8287369;28;20029;-63
2021/12/14 21:24:38;;;;;;;5.53;4.63;;;;;;;;;;8286819;28;20034;-63
2021/12/14 21:28:40;;;;;;;5.85;5.10;;;;;;;;;;8285607;28;20033;-63
2021/12/14 21:32:43;;;;;;;5.85;4.82;;;;;;;;;;8284412;28;20557;-63
2021/12/14 21:36:45;;;;;;;8.77;4.60;;;;;;;;;;8288417;28;20025;-63
2021/12/14 21:40:46;;;;;;;3.67;3.35;;;;;;;;;;8284048;28;20025;-63
2021/12/14 21:48:50;;;;;;;6.25;3.55;;;;;;;;;;8271777;28;20553;-63
2021/12/14 21:52:56;;;;;;;6.45;3.75;;;;;;;;;;8281026;28;20376;-63
2021/12/14 21:56:58;;;;;;;4.30;3.45;;;;;;;;;;8284855;28;20113;-63
2021/12/14 22:00:59;;;;;;;4.35;3.45;;;;;;;;;;8280489;28;20041;-63
2021/12/14 22:05:00;;;;;;;3.55;3.25;;;;;;;;;;8286056;28;20018;-63
2021/12/14 22:09:00;;;;;;;7.93;6.10;;;;;;;;;;8283056;28;20429;-63
2021/12/14 22:13:01;;;;;;;5.43;3.92;;;;;;;;;;8285459;28;20738;-63
2021/12/14 22:17:08;;;;;;;3.90;3.30;;;;;;;;;;8280757;28;20033;-63
2021/12/14 22:21:08;;;;;;;5.05;3.88;;;;;;;;;;8282458;28;20152;-63
2021/12/14 22:25:13;;;;;;;5.82;4.25;;;;;;;;;;8284783;28;20072;-63
2021/12/14 22:29:15;;;;;;;5.57;4.55;;;;;;;;;;8285678;28;20029;-63
2021/12/14 22:33:16;;;;;;;8.00;6.57;;;;;;;;;;8281735;28;20193;-63
2021/12/14 22:37:17;;;;;;;5.45;4.20;;;;;;;;;;8284548;28;20041;-63
2021/12/14 22:45:20;;;;;;;4.77;3.33;;;;;;;;;;8282929;28;20143;-63
2021/12/14 22:49:26;;;;;;;18.20;12.05;;;;;;;;;;8284336;28;20056;-63
2021/12/14 22:53:26;;;;;;;5.82;5.00;;;;;;;;;;8283456;28;20040;-63
2021/12/14 22:57:28;;;;;;;4.18;3.65;;;;;;;;;;8282631;28;20109;-63
2021/12/14 23:01:30;;;;;;;3.20;2.90;;;;;;;;;;8285325;28;20585;-63
2021/12/14 23:05:31;;;;;;;2.78;2.58;;;;;;;;;;8280273;28;20572;-63
2021/12/14 23:09:33;;;;;;;2.85;2.60;;;;;;;;;;8283131;28;20781;-63
2021/12/14 23:13:36;;;;;;;3.05;2.50;;;;;;;;;;8282864;28;20581;-63
2021/12/14 23:17:52;;;;;;;3.08;2.80;;;;;;;;;;8279490;28;20041;-63
2021/12/14 23:21:52;;;;;;;4.75;2.88;;;;;;;;;;8283009;28;20030;-63
2021/12/14 23:25:53;;;;;;;4.20;2.80;;;;;;;;;;8280524;28;20029;-63
2021/12/14 23:29:54;;;;;;;3.13;2.65;;;;;;;;;;8282203;28;20432;-63
2021/12/14 23:33:55;;;;;;;4.05;2.55;;;;;;;;;;8282766;28;20037;-63
2021/12/14 23:37:57;;;;;;;3.05;2.75;;;;;;;;;;8282175;28;20025;-63
2021/12/14 23:42:03;;;;;;;3.78;2.67;;;;;;;;;;8283516;28;20087;-63
2021/12/14 23:50:20;;;;;;;3.45;2.83;;;;;;;;;;8282764;28;20505;-63
2021/12/14 23:54:23;;;;;;;2.80;2.60;;;;;;;;;;8282364;28;20370;-63
2021/12/14 23:58:23;;;;;;;4.13;2.42;;;;;;;;;;8279167;28;20441;-63
